Time;durP1;ratioP1;P1;durP2;ratioP2;P2;SDS_P1;SDS_P2;PMS_P1;PMS_P2;Temp;Humidity;BMP_temperature;BMP_pressure;BME280_temperature;BME280_humidity;BME280_pressure;Samples;Min_cycle;Max_cycle;Signal;HPM_P1;HPM_P2
2023/01/08 11:56:19;;;;;;;2.13;1.00;;;10.30;81.20;;;18.14;46.66;100018.75;5130012;27;20379;-55
2023/01/08 11:59:04;;;;;;;3.33;1.30;;;14.60;69.90;;;18.75;44.04;100021.38;5095575;28;20200;-53
2023/01/08 12:01:46;;;;;;;2.70;1.57;;;15.30;66.00;;;19.02;43.75;100010.00;5082464;28;20644;-54
2023/01/08 12:04:40;;;;;;;2.70;1.33;;;15.80;64.20;;;19.06;40.57;100013.75;5070186;28;20303;-57
2023/01/08 12:07:16;;;;;;;2.93;1.30;;;16.20;59.90;;;19.20;41.75;100007.00;4978326;28;20657;-62
2023/01/08 12:09:49;;;;;;;3.63;1.60;;;16.50;59.90;;;19.16;41.27;100000.56;4895003;29;20220;-56
2023/01/08 12:13:40;;;;;;;4.50;1.30;;;16.60;59.40;;;18.71;40.41;99998.06;4851320;29;20213;-54
2023/01/08 12:16:06;;;;;;;3.77;1.80;;;16.70;58.00;;;18.45;40.96;99996.88;4648692;30;20724;-55
2023/01/08 12:21:25;;;;;;;3.90;1.53;;;16.40;56.60;;;18.80;42.02;99991.28;5160584;27;20574;-53
2023/01/08 12:24:10;;;;;;;4.90;1.60;;;16.30;58.10;;;19.13;41.46;99990.38;5127218;27;20214;-54
2023/01/08 12:26:53;;;;;;;4.73;1.80;;;16.40;58.90;;;19.25;40.60;99989.19;5051642;28;20217;-55
2023/01/08 12:30:00;;;;;;;3.30;1.50;;;16.40;57.70;;;18.89;39.47;99981.81;5046187;28;20193;-55
2023/01/08 12:32:35;;;;;;;5.13;1.97;;;16.40;56.30;;;18.56;40.89;99980.03;4904604;29;20680;-54
2023/01/08 12:35:09;;;;;;;5.43;1.60;;;16.20;56.30;;;18.24;41.07;99981.63;4772237;29;20583;-56
2023/01/08 12:37:47;;;;;;;7.13;2.10;;;16.00;56.70;;;18.02;41.81;99972.75;4669098;30;1169292;-57
2023/01/08 12:40:23;;;;;;;5.40;1.87;;;15.80;57.70;;;17.82;42.16;99967.09;4442103;31;20305;-55
2023/01/08 12:42:51;;;;;;;4.63;1.83;;;15.60;58.10;;;17.61;42.29;99965.13;4428112;32;20228;-56
2023/01/08 12:45:29;;;;;;;3.30;1.63;;;15.40;58.20;;;17.30;42.48;99969.88;4365823;32;982508;-54
2023/01/08 12:48:05;;;;;;;4.53;1.67;;;15.10;58.00;;;16.97;43.39;99980.38;4390220;32;20245;-56
2023/01/08 12:50:50;;;;;;;6.90;1.87;;;14.90;58.60;;;16.83;43.65;99979.81;4390886;32;20203;-55
2023/01/08 12:53:33;;;;;;;4.37;1.70;;;14.70;59.40;;;16.73;44.03;99978.78;4390491;32;20215;-53
2023/01/08 12:56:10;;;;;;;5.33;1.97;;;14.60;60.00;;;16.51;44.31;99972.41;4381405;32;20224;-56
2023/01/08 12:58:58;;;;;;;4.13;1.60;;;14.40;60.00;;;16.33;45.11;99967.22;4386986;32;20299;-54
2023/01/08 13:01:40;;;;;;;4.53;1.90;;;14.30;60.80;;;16.36;45.25;99966.75;4375457;32;20236;-55
2023/01/08 13:04:10;;;;;;;7.70;1.87;;;14.20;61.70;;;16.35;45.32;99959.84;4375743;32;20240;-55
2023/01/08 13:06:47;;;;;;;4.30;1.63;;;14.00;61.50;;;16.33;45.24;99962.72;4375114;32;20224;-56
2023/01/08 13:09:23;;;;;;;5.17;2.00;;;14.00;61.80;;;16.24;45.40;99959.59;4375369;32;20759;-54
2023/01/08 13:11:54;;;;;;;7.93;1.80;;;13.90;62.00;;;16.30;45.44;99952.56;4387928;32;20560;-57
2023/01/08 13:14:22;;;;;;;5.10;2.27;;;13.90;62.60;;;16.20;45.40;99955.78;4375047;32;20215;-58
2023/01/08 13:17:03;;;;;;;4.00;1.80;;;13.90;62.50;;;16.13;45.54;99952.44;4375028;32;20709;-56
2023/01/08 13:19:40;;;;;;;6.83;1.93;;;13.90;62.70;;;16.07;45.52;99937.41;4375421;32;20291;-53
2023/01/08 13:22:27;;;;;;;5.03;1.90;;;13.80;62.70;;;15.93;45.83;99928.06;4375476;32;20544;-56
2023/01/08 13:25:26;;;;;;;4.60;2.07;;;13.70;62.60;;;15.94;46.24;99932.34;4374998;32;20209;-55
2023/01/08 13:27:53;;;;;;;6.83;2.20;;;13.80;63.20;;;16.00;46.19;99928.75;4389915;32;20393;-56
2023/01/08 13:30:41;;;;;;;4.93;1.80;;;13.70;63.40;;;16.08;46.26;99917.81;4389897;32;20271;-55
2023/01/08 13:33:34;;;;;;;5.57;1.80;;;13.70;63.90;;;16.20;45.89;99918.63;4380309;32;20256;-56
2023/01/08 13:36:22;;;;;;;5.50;2.17;;;13.80;63.50;;;16.32;45.75;99917.81;4380000;32;20216;-55
2023/01/08 13:39:03;;;;;;;5.53;2.00;;;13.80;63.90;;;16.27;45.74;99908.69;4381290;32;20254;-54
2023/01/08 13:41:34;;;;;;;5.47;2.13;;;13.80;64.50;;;16.21;45.84;99906.94;4504876;31;20247;-54
2023/01/08 13:44:05;;;;;;;6.50;1.93;;;13.80;63.60;;;16.21;46.04;99906.16;4589619;31;20227;-58
2023/01/08 13:46:39;;;;;;;5.17;2.13;;;13.80;63.80;;;16.16;46.06;99893.56;4594604;31;20214;-55
2023/01/08 13:49:18;;;;;;;5.03;2.13;;;13.80;63.90;;;16.18;46.71;99907.44;4600327;31;20262;-54
2023/01/08 13:51:46;;;;;;;4.80;2.33;;;13.80;64.30;;;16.06;46.49;99901.31;4595167;31;20218;-56
2023/01/08 13:54:30;;;;;;;3.50;1.73;;;13.70;64.10;;;16.04;46.99;99895.44;4579929;31;20237;-55
2023/01/08 13:57:11;;;;;;;7.90;2.40;;;13.70;64.60;;;16.03;46.58;99893.78;4584829;31;20318;-55
2023/01/08 13:59:42;;;;;;;2.63;1.60;;;13.70;64.70;;;15.95;46.53;99891.47;4582850;31;20287;-57
2023/01/08 14:02:27;;;;;;;3.70;1.73;;;13.60;64.50;;;15.89;47.01;99886.28;4582300;31;20208;-57
2023/01/08 14:05:00;;;;;;;4.33;2.43;;;13.60;64.90;;;15.88;47.15;99882.81;4582755;31;20231;-54
2023/01/08 14:07:29;;;;;;;7.20;2.30;;;13.60;65.30;;;15.85;47.32;99885.13;4582939;31;20789;-57
2023/01/08 14:10:07;;;;;;;5.83;1.77;;;13.50;65.40;;;15.80;47.29;99882.34;4583495;31;20247;-55
2023/01/08 14:12:36;;;;;;;4.07;1.97;;;13.50;65.80;;;15.79;47.44;99891.34;4587109;31;20202;-54
2023/01/08 14:15:08;;;;;;;5.43;2.40;;;13.40;65.80;;;15.78;47.74;99879.13;4586867;31;20238;-55
2023/01/08 14:17:35;;;;;;;4.07;1.67;;;13.40;65.90;;;15.77;47.49;99875.66;4588932;31;20230;-52
2023/01/08 14:20:11;;;;;;;5.83;1.83;;;13.40;66.10;;;15.72;47.54;99878.19;4583717;31;20223;-56
2023/01/08 14:22:40;;;;;;;6.90;1.87;;;13.40;66.10;;;15.70;47.59;99876.81;4582681;31;20211;-56
2023/01/08 14:25:16;;;;;;;5.07;2.33;;;13.30;66.10;;;15.64;47.62;99873.25;4580494;31;20575;-56
2023/01/08 14:27:56;;;;;;;8.37;2.57;;;13.30;66.30;;;15.57;47.83;99869.84;4594390;31;20238;-56
2023/01/08 14:30:24;;;;;;;6.07;2.27;;;13.30;66.40;;;15.56;48.06;99868.25;4583236;31;20242;-56
2023/01/08 14:32:53;;;;;;;5.57;2.33;;;13.20;66.60;;;15.54;48.29;99867.69;4583783;31;20212;-55
2023/01/08 14:35:32;;;;;;;6.63;1.93;;;13.20;66.90;;;15.54;48.18;99871.16;4589649;31;20219;-57
2023/01/08 14:38:04;;;;;;;6.50;2.20;;;13.20;67.10;;;15.51;48.00;99862.81;4600443;30;20263;-53
2023/01/08 14:40:40;;;;;;;5.47;2.17;;;13.10;67.30;;;15.45;48.58;99861.88;4675415;30;20241;-56
2023/01/08 14:43:17;;;;;;;8.00;2.00;;;13.10;67.50;;;15.46;48.75;99866.16;4727389;30;20217;-56
2023/01/08 14:45:53;;;;;;;7.67;2.60;;;13.10;67.70;;;15.46;48.75;99862.69;4746050;30;20269;-56
2023/01/08 14:48:24;;;;;;;5.57;2.13;;;13.00;67.90;;;15.47;48.92;99859.00;4746269;30;20282;-54
2023/01/08 14:51:01;;;;;;;3.67;1.90;;;13.00;68.10;;;15.46;48.79;99860.03;4740072;30;20194;-57
2023/01/08 14:53:35;;;;;;;6.20;2.77;;;13.00;68.40;;;15.47;48.70;99857.19;4742692;30;20216;-57
2023/01/08 14:56:05;;;;;;;5.67;2.40;;;13.00;68.50;;;15.52;48.71;99853.84;4746740;30;20574;-54
2023/01/08 14:58:39;;;;;;;7.40;2.07;;;13.00;68.90;;;15.54;48.88;99851.75;4738637;30;20241;-56
2023/01/08 15:01:14;;;;;;;6.13;2.03;;;13.00;68.90;;;15.55;48.86;99848.88;4738504;30;20575;-57
2023/01/08 15:03:44;;;;;;;7.50;2.37;;;13.00;69.00;;;15.56;48.98;99837.25;4733920;30;20298;-58
2023/01/08 15:06:23;;;;;;;5.37;2.33;;;13.00;69.10;;;15.54;49.17;99838.50;4735534;30;20652;-58
2023/01/08 15:08:52;;;;;;;7.13;1.97;;;12.90;69.20;;;15.55;48.89;99837.44;4734774;30;20225;-54
2023/01/08 15:11:22;;;;;;;4.27;2.00;;;12.90;69.20;;;15.57;48.73;99840.66;4734066;30;20212;-56
2023/01/08 15:13:53;;;;;;;6.77;2.07;;;12.90;69.30;;;15.57;48.95;99843.31;4734853;30;20205;-56
2023/01/08 15:16:27;;;;;;;5.07;2.90;;;12.90;69.30;;;15.54;49.03;99836.66;4735611;30;20201;-57
2023/01/08 15:19:04;;;;;;;4.37;2.80;;;12.90;69.40;;;15.55;49.02;99838.25;4735737;30;20233;-62
2023/01/08 15:21:33;;;;;;;7.63;2.73;;;12.90;69.50;;;15.57;48.61;99832.72;4734931;30;20264;-54
2023/01/08 15:24:03;;;;;;;5.10;2.30;;;12.90;69.70;;;15.60;49.38;99829.63;4734583;30;20709;-55
2023/01/08 15:26:30;;;;;;;4.33;2.03;;;12.90;70.00;;;15.64;49.33;99829.97;4735460;30;20214;-56
2023/01/08 15:29:03;;;;;;;5.90;2.70;;;12.90;70.10;;;15.68;49.25;99829.28;4735828;30;20221;-56
2023/01/08 15:31:44;;;;;;;4.87;3.27;;;12.90;70.20;;;15.67;49.30;99825.00;4736095;30;20186;-55
2023/01/08 15:34:11;;;;;;;8.03;2.80;;;12.90;70.20;;;15.67;49.46;99830.31;4735468;30;20201;-57
2023/01/08 15:36:38;;;;;;;5.20;2.43;;;12.90;70.10;;;15.65;49.65;99826.28;4734508;30;20205;-56
2023/01/08 15:39:05;;;;;;;5.27;2.20;;;12.90;70.50;;;15.63;49.74;99823.03;4758294;29;20230;-54
2023/01/08 15:44:22;;;;;;;7.80;2.47;;;12.90;70.80;;;15.55;50.00;99821.53;4906080;29;20226;-56
2023/01/08 15:46:51;;;;;;;6.33;2.20;;;12.90;71.20;;;15.52;50.29;99812.19;4924023;29;20273;-60
2023/01/08 15:49:18;;;;;;;6.97;2.53;;;12.80;71.30;;;15.53;50.36;99820.97;4937207;29;20238;-54
2023/01/08 15:51:48;;;;;;;6.13;2.67;;;12.80;71.60;;;15.53;50.45;99813.00;4915669;29;20294;-54
2023/01/08 15:54:16;;;;;;;4.60;2.17;;;12.80;71.90;;;15.54;50.69;99814.63;4915636;29;20218;-54
2023/01/08 15:56:43;;;;;;;7.70;2.60;;;12.80;73.20;;;15.54;50.69;99820.75;4900093;29;20209;-55
2023/01/08 15:59:11;;;;;;;4.30;2.00;;;12.70;72.70;;;15.56;50.38;99817.84;4903897;29;20249;-54
2023/01/08 16:01:39;;;;;;;6.27;2.47;;;12.70;72.80;;;15.55;50.93;99822.34;4935958;29;20618;-53
2023/01/08 16:04:06;;;;;;;6.30;2.57;;;12.70;73.00;;;15.54;51.12;99809.31;4934919;29;20217;-53
2023/01/08 16:06:35;;;;;;;6.53;2.23;;;12.70;73.20;;;15.51;51.33;99821.19;4918312;29;20218;-54
2023/01/08 16:09:02;;;;;;;6.10;2.70;;;12.70;73.00;;;15.49;51.20;99820.63;4915962;29;20214;-54
2023/01/08 16:11:29;;;;;;;5.73;2.50;;;12.70;73.30;;;15.49;51.04;99811.84;4916432;29;20194;-56
2023/01/08 16:13:56;;;;;;;9.10;2.73;;;12.60;73.20;;;15.46;51.26;99818.41;4917126;29;20268;-55
2023/01/08 16:16:23;;;;;;;6.70;2.37;;;12.70;73.40;;;15.39;51.60;99822.19;4914761;29;20195;-55
2023/01/08 16:18:51;;;;;;;7.03;2.43;;;12.60;73.50;;;15.32;51.72;99805.56;4917195;29;20267;-55
2023/01/08 16:21:18;;;;;;;4.33;2.03;;;12.70;73.70;;;15.25;51.96;99804.84;4916626;29;20219;-56
2023/01/08 16:23:45;;;;;;;2.53;1.40;;;12.60;73.40;;;15.09;51.11;99805.53;4916393;29;20191;-56
2023/01/08 16:26:15;;;;;;;3.33;1.37;;;12.50;72.10;;;14.87;51.42;99802.56;4916350;29;20749;-54
2023/01/08 16:28:41;;;;;;;2.47;1.17;;;12.50;71.70;;;14.70;51.65;99807.69;4920713;29;20217;-54
2023/01/08 16:31:09;;;;;;;4.50;1.40;;;12.40;71.30;;;14.69;51.60;99800.75;4936898;29;20233;-52
2023/01/08 16:33:37;;;;;;;1.57;1.10;;;12.40;71.40;;;14.74;51.66;99803.56;4929044;29;20218;-55
2023/01/08 16:36:07;;;;;;;1.90;1.10;;;12.40;71.70;;;14.67;51.52;99807.31;4918035;29;20195;-53
2023/01/08 16:38:35;;;;;;;2.27;0.97;;;12.40;71.80;;;14.64;51.67;99805.91;4922684;29;20285;-56
2023/01/08 16:41:04;;;;;;;1.80;1.10;;;12.30;71.70;;;14.59;51.60;99799.69;4945347;28;20216;-53
2023/01/08 16:43:39;;;;;;;1.50;1.20;;;12.30;71.80;;;14.48;51.79;99801.25;4975077;28;20220;-54
2023/01/08 16:46:11;;;;;;;2.13;1.00;;;12.20;71.90;;;14.39;52.13;99796.47;5017438;28;20215;-55
2023/01/08 16:48:39;;;;;;;2.13;0.80;;;12.10;71.90;;;14.24;52.38;99802.09;5013370;28;20230;-56
2023/01/08 16:51:08;;;;;;;1.57;0.90;;;12.00;72.00;;;14.17;52.43;99806.66;5015193;28;20179;-56
2023/01/08 16:53:36;;;;;;;1.30;1.20;;;11.90;72.10;;;14.05;52.59;99811.88;5014595;28;20565;-55
2023/01/08 16:56:04;;;;;;;0.97;0.80;;;11.80;72.30;;;13.97;52.66;99814.03;5014295;28;20195;-55
2023/01/08 16:58:33;;;;;;;1.23;0.80;;;11.80;72.50;;;13.86;53.09;99810.25;5013697;28;20215;-52
2023/01/08 17:01:02;;;;;;;1.53;1.00;;;11.60;72.50;;;13.66;53.28;99801.72;5011386;28;20224;-53
2023/01/08 17:03:29;;;;;;;3.27;0.97;;;11.50;72.80;;;13.60;53.43;99799.13;4994365;28;20188;-54
2023/01/08 17:06:03;;;;;;;2.10;1.00;;;11.40;73.00;;;13.53;53.73;99809.75;4994514;28;20188;-56
2023/01/08 17:08:32;;;;;;;2.30;0.87;;;11.40;73.40;;;13.42;53.99;99805.16;4998188;28;20218;-54
2023/01/08 17:10:59;;;;;;;1.70;1.60;;;11.20;73.30;;;13.25;54.15;99801.44;4998467;28;20266;-53
2023/01/08 17:13:26;;;;;;;1.30;1.13;;;11.10;73.50;;;13.21;54.09;99802.91;4998097;28;20203;-53
2023/01/08 17:15:53;;;;;;;0.77;0.73;;;11.10;73.70;;;13.16;54.23;99803.53;4997621;28;20203;-52
2023/01/08 17:18:19;;;;;;;2.30;1.20;;;11.00;73.80;;;13.06;54.58;99803.19;5005733;28;20253;-54
2023/01/08 17:20:52;;;;;;;1.10;0.90;;;10.90;74.00;;;13.02;54.42;99801.97;5017705;28;20281;-54
2023/01/08 17:23:19;;;;;;;1.30;1.20;;;10.90;75.10;;;12.97;54.54;99804.44;5016602;28;20259;-53
2023/01/08 17:25:47;;;;;;;1.10;0.90;;;10.80;74.60;;;12.95;54.52;99795.94;5016688;28;20270;-54
2023/01/08 17:28:14;;;;;;;1.40;0.90;;;10.80;74.60;;;12.93;54.69;99792.69;5017046;28;20229;-56
2023/01/08 17:30:41;;;;;;;0.83;0.80;;;10.70;74.90;;;12.87;54.96;99786.44;5016917;28;20194;-52
2023/01/08 17:33:08;;;;;;;1.33;1.23;;;10.60;75.90;;;12.81;55.23;99794.41;5016652;28;20199;-53
2023/01/08 17:35:35;;;;;;;1.80;1.10;;;10.60;75.50;;;12.74;55.39;99798.91;4998182;28;20208;-52
2023/01/08 17:38:02;;;;;;;3.27;1.37;;;10.50;75.80;;;12.72;55.54;99795.66;5011504;28;20625;-54
2023/01/08 17:40:29;;;;;;;2.27;1.40;;;10.50;76.00;;;12.70;55.82;99798.50;5003150;28;20218;-53
2023/01/08 17:42:57;;;;;;;1.70;1.50;;;10.40;76.20;;;12.60;55.98;99797.38;4997741;28;20270;-55
2023/01/08 17:45:24;;;;;;;0.90;0.90;;;10.40;76.60;;;12.47;56.64;99789.50;5023890;28;20678;-53
2023/01/08 17:47:51;;;;;;;2.03;0.90;;;10.30;76.90;;;12.39;56.79;99795.00;5035459;28;20289;-54
2023/01/08 17:50:19;;;;;;;1.20;1.10;;;10.30;77.30;;;12.37;56.83;99797.03;5034050;28;20694;-53
2023/01/08 17:52:46;;;;;;;0.90;0.80;;;10.20;77.30;;;12.38;56.71;99798.66;5035884;28;20182;-54
2023/01/08 17:55:12;;;;;;;1.30;1.20;;;10.20;77.50;;;12.33;57.08;99796.66;5035416;28;20293;-53
2023/01/08 17:57:39;;;;;;;1.47;1.37;;;10.10;77.60;;;12.34;56.98;99794.84;5035690;28;20218;-54
2023/01/08 18:00:10;;;;;;;2.30;1.77;;;10.10;78.00;;;12.34;57.18;99792.19;5036075;28;20183;-52
2023/01/08 18:02:37;;;;;;;2.90;1.63;;;10.10;78.10;;;12.32;57.28;99799.47;5035809;28;20285;-54
2023/01/08 18:05:05;;;;;;;2.37;1.63;;;10.00;78.50;;;12.31;57.44;99796.06;5034613;28;20225;-53
2023/01/08 18:07:33;;;;;;;2.83;1.90;;;10.00;78.50;;;12.31;57.23;99798.69;5025190;28;20227;-52
2023/01/08 18:10:00;;;;;;;2.90;1.90;;;10.00;78.60;;;12.32;57.52;99794.22;5016807;28;20206;-53
2023/01/08 18:12:27;;;;;;;3.93;1.70;;;10.00;78.90;;;12.28;57.64;99793.00;5016486;28;20191;-52
2023/01/08 18:14:54;;;;;;;2.97;1.63;;;9.90;80.10;;;12.23;57.88;99794.47;5015935;28;20644;-54
2023/01/08 18:17:22;;;;;;;3.87;1.50;;;9.90;80.50;;;12.19;57.78;99787.97;5014954;28;20211;-53
2023/01/08 18:19:49;;;;;;;3.23;1.70;;;9.90;80.70;;;12.14;58.46;99793.06;5014822;28;20656;-56
2023/01/08 18:22:16;;;;;;;3.20;1.70;;;9.90;80.90;;;12.10;58.23;99797.13;5015877;28;20218;-52
2023/01/08 18:24:43;;;;;;;2.10;1.80;;;9.80;81.00;;;12.08;58.30;99793.88;5018534;28;20551;-55
2023/01/08 18:27:11;;;;;;;2.03;1.87;;;9.80;81.10;;;12.07;58.26;99779.09;5018508;28;20255;-56
2023/01/08 18:29:38;;;;;;;2.70;1.70;;;9.80;81.20;;;12.09;58.55;99790.25;5017304;28;20193;-55
2023/01/08 18:32:05;;;;;;;2.90;1.80;;;9.80;81.20;;;12.09;58.69;99779.69;5017526;28;20253;-55
2023/01/08 18:34:33;;;;;;;2.33;2.13;;;9.80;81.30;;;12.04;58.68;99787.41;5031920;28;20600;-52
2023/01/08 18:37:00;;;;;;;2.87;2.00;;;9.80;81.60;;;12.01;58.49;99782.56;5035382;28;20554;-53
2023/01/08 18:39:28;;;;;;;2.27;2.07;;;9.70;81.50;;;12.00;58.79;99777.50;5035423;28;20198;-52
2023/01/08 18:44:40;;;;;;;2.17;1.87;;;9.70;81.60;;;12.00;58.89;99778.31;5034639;28;20194;-55
2023/01/08 18:47:08;;;;;;;2.13;1.70;;;9.70;81.60;;;12.01;58.51;99766.72;5035551;28;20190;-54
2023/01/08 18:49:36;;;;;;;3.33;2.40;;;9.70;81.80;;;12.02;58.74;99789.47;5034608;28;20194;-55
2023/01/08 18:52:04;;;;;;;2.87;2.00;;;9.70;82.00;;;12.03;58.38;99777.88;5035001;28;20268;-53
2023/01/08 18:54:30;;;;;;;4.93;2.67;;;9.60;81.80;;;12.05;58.70;99777.69;5034828;28;20199;-54
2023/01/08 18:57:00;;;;;;;3.27;2.13;;;9.60;81.90;;;12.06;58.58;99774.81;5039112;28;20556;-56
2023/01/08 18:59:27;;;;;;;4.03;2.50;;;9.60;81.80;;;12.09;58.04;99768.34;5015681;28;20203;-53
2023/01/08 19:01:54;;;;;;;2.93;2.43;;;9.60;81.90;;;12.10;58.30;99769.94;5015454;28;20668;-55
2023/01/08 19:04:21;;;;;;;3.50;2.90;;;9.60;81.90;;;12.12;58.03;99768.72;5015207;28;20350;-56
2023/01/08 19:06:49;;;;;;;3.63;2.70;;;9.60;82.10;;;12.14;58.10;99771.16;5018137;28;20199;-53
2023/01/08 19:09:16;;;;;;;3.37;3.00;;;9.60;82.10;;;12.14;58.14;99771.97;5014920;28;20211;-52
2023/01/08 19:11:43;;;;;;;4.17;2.70;;;9.60;82.20;;;12.13;58.10;99770.34;5015138;28;20199;-53
2023/01/08 19:14:12;;;;;;;2.87;2.30;;;9.60;82.10;;;12.14;58.05;99765.88;5016405;28;20191;-52
2023/01/08 19:16:39;;;;;;;4.40;2.90;;;9.50;82.20;;;12.14;57.87;99766.69;5015056;28;20197;-55
2023/01/08 19:19:06;;;;;;;3.67;2.60;;;9.50;82.10;;;12.10;58.43;99754.91;5015264;28;20213;-53
2023/01/08 19:21:33;;;;;;;3.53;2.33;;;9.50;82.20;;;12.07;58.04;99755.38;5015055;28;20222;-54
2023/01/08 19:24:01;;;;;;;3.53;2.83;;;9.60;82.20;;;12.03;58.08;99753.31;5015326;28;20233;-54
2023/01/08 19:26:28;;;;;;;3.83;2.80;;;9.50;82.00;;;11.97;58.31;99744.44;5015182;28;20199;-52
2023/01/08 19:28:55;;;;;;;4.40;2.87;;;9.50;82.30;;;11.93;58.31;99743.22;5017394;28;20211;-54
2023/01/08 19:31:22;;;;;;;7.33;2.77;;;9.50;82.30;;;11.91;58.69;99739.19;5034402;28;20561;-56
2023/01/08 19:33:51;;;;;;;2.90;2.60;;;9.50;82.60;;;11.88;58.63;99731.69;5033302;28;20662;-52
2023/01/08 19:36:19;;;;;;;3.47;2.93;;;9.40;82.40;;;11.87;58.87;99725.59;5032565;28;20203;-55
2023/01/08 19:38:46;;;;;;;3.30;3.00;;;9.40;82.60;;;11.85;58.86;99717.09;5014162;28;20229;-52
2023/01/08 19:44:00;;;;;;;5.53;3.60;;;9.30;82.70;;;11.86;58.88;99717.91;5012767;28;20192;-56
2023/01/08 19:46:28;;;;;;;4.27;3.33;;;9.30;82.90;;;11.84;58.67;99712.81;5023114;28;20193;-54
2023/01/08 19:48:57;;;;;;;4.80;3.80;;;9.30;82.90;;;11.82;58.53;99706.13;5032493;28;20206;-54
2023/01/08 19:51:26;;;;;;;4.13;3.30;;;9.30;82.80;;;11.76;58.71;99699.06;5032582;28;20186;-55
2023/01/08 19:53:55;;;;;;;4.97;3.47;;;9.30;82.90;;;11.69;59.36;99703.56;5032937;28;20269;-54
2023/01/08 19:56:23;;;;;;;4.20;3.37;;;9.20;82.90;;;11.64;58.99;99708.59;5032274;28;20539;-53
2023/01/08 19:58:50;;;;;;;5.27;3.37;;;9.20;82.90;;;11.61;58.77;99695.81;5032900;28;20202;-55
2023/01/08 20:01:23;;;;;;;3.07;2.70;;;9.10;82.90;;;11.62;59.30;99698.28;5031590;28;20209;-52
2023/01/08 20:03:51;;;;;;;4.07;3.13;;;9.10;83.00;;;11.64;59.17;99704.16;5016549;28;20218;-56
2023/01/08 20:06:21;;;;;;;3.17;2.73;;;9.10;83.40;;;11.67;59.26;99697.66;5012497;28;20203;-55
2023/01/08 20:08:52;;;;;;;3.30;3.00;;;9.10;83.60;;;11.71;59.33;99699.69;5012758;28;20207;-53
2023/01/08 20:11:21;;;;;;;3.87;2.53;;;9.10;83.70;;;11.79;59.25;99699.44;5012964;28;20180;-56
2023/01/08 20:13:50;;;;;;;2.60;2.40;;;9.10;84.00;;;11.87;58.96;99696.59;5013207;28;20199;-53
2023/01/08 20:16:19;;;;;;;3.17;2.30;;;9.20;84.10;;;11.91;58.98;99697.78;5012495;28;20198;-53
2023/01/08 20:18:48;;;;;;;3.70;2.30;;;9.20;83.80;;;11.95;58.79;99691.09;5020592;28;20218;-55
2023/01/08 20:21:19;;;;;;;2.83;1.90;;;9.30;83.70;;;11.98;58.74;99693.28;5032590;28;20639;-54
2023/01/08 20:23:47;;;;;;;3.53;2.17;;;9.30;83.60;;;12.02;58.48;99689.25;5032812;28;20182;-54
2023/01/08 20:26:17;;;;;;;3.63;2.40;;;9.30;83.60;;;12.07;58.59;99691.25;5032488;28;20713;-58
2023/01/08 20:28:45;;;;;;;3.63;2.37;;;9.30;83.70;;;12.13;58.78;99685.94;5032146;28;20261;-56
2023/01/08 20:31:16;;;;;;;2.30;2.10;;;9.40;83.90;;;12.19;58.21;99685.06;5033008;28;20558;-57
2023/01/08 20:33:44;;;;;;;2.10;1.90;;;9.40;83.90;;;12.18;58.25;99678.19;5023234;28;20199;-57
2023/01/08 20:36:14;;;;;;;3.20;2.60;;;9.50;83.50;;;12.16;58.46;99680.25;5028935;28;20198;-58
2023/01/08 20:38:42;;;;;;;3.57;2.40;;;9.50;83.30;;;12.12;58.74;99675.59;5032605;28;20222;-57
2023/01/08 20:41:10;;;;;;;3.23;2.70;;;9.50;83.30;;;12.11;58.44;99672.16;5033695;28;20191;-56
2023/01/08 20:43:39;;;;;;;3.37;2.83;;;9.50;83.20;;;12.09;59.08;99657.56;5036399;28;20586;-55
2023/01/08 20:46:08;;;;;;;2.03;1.93;;;9.50;83.20;;;12.05;58.97;99659.00;5002179;28;997466;-57
2023/01/08 20:48:36;;;;;;;3.53;2.40;;;9.50;83.00;;;11.97;58.80;99654.78;5037044;28;20240;-55
2023/01/08 20:51:14;;;;;;;3.20;2.87;;;9.40;82.80;;;11.89;58.97;99655.00;5035397;28;20657;-57
2023/01/08 20:53:41;;;;;;;4.33;2.90;;;9.40;83.20;;;11.80;59.35;99647.53;5024445;28;20222;-55
2023/01/08 20:56:11;;;;;;;3.63;3.10;;;9.30;83.20;;;11.74;59.42;99651.03;5025543;28;20194;-57
2023/01/08 20:58:43;;;;;;;3.77;3.13;;;9.30;83.40;;;11.67;59.27;99642.31;5036870;28;20225;-55
2023/01/08 21:01:13;;;;;;;4.10;2.57;;;9.20;83.50;;;11.62;59.82;99642.13;5037109;28;20301;-56
2023/01/08 21:03:43;;;;;;;4.23;3.13;;;9.20;84.10;;;11.55;60.08;99644.78;5020970;28;20214;-56
2023/01/08 21:06:14;;;;;;;4.23;2.43;;;9.10;84.20;;;11.52;59.96;99647.81;5017300;28;20250;-57
2023/01/08 21:08:43;;;;;;;2.50;2.30;;;9.10;84.30;;;11.49;60.21;99630.59;5017673;28;20226;-57
2023/01/08 21:11:12;;;;;;;3.23;2.53;;;9.10;84.60;;;11.48;60.33;99633.44;5017461;28;20237;-56
2023/01/08 21:13:40;;;;;;;2.87;2.63;;;9.10;84.80;;;11.44;60.54;99634.84;5017554;28;20935;-56
2023/01/08 21:16:13;;;;;;;3.37;2.77;;;9.00;85.00;;;11.42;60.79;99634.25;5021257;28;20199;-55
2023/01/08 21:18:46;;;;;;;2.67;2.17;;;9.00;85.00;;;11.43;60.37;99635.91;5036730;28;20225;-55
2023/01/08 21:21:16;;;;;;;2.83;2.60;;;9.00;85.00;;;11.45;60.79;99628.59;5037270;28;20190;-55
2023/01/08 21:23:45;;;;;;;3.43;2.47;;;9.00;85.20;;;11.42;60.29;99629.00;5016669;28;20684;-57
2023/01/08 21:26:14;;;;;;;3.23;2.93;;;8.90;85.30;;;11.39;61.19;99624.13;5016738;28;20201;-54
2023/01/08 21:28:42;;;;;;;4.63;2.70;;;8.90;85.30;;;11.38;60.69;99617.25;5016983;28;20214;-55
2023/01/08 21:31:12;;;;;;;3.20;3.00;;;8.90;85.60;;;11.34;61.36;99616.03;5016597;28;20199;-55
2023/01/08 21:33:44;;;;;;;3.40;3.10;;;8.90;85.80;;;11.28;61.10;99611.59;5033311;28;20179;-56
2023/01/08 21:36:17;;;;;;;2.83;2.53;;;8.80;86.00;;;11.29;61.17;99602.72;5038264;28;20186;-56
2023/01/08 21:38:45;;;;;;;3.77;2.80;;;8.80;85.80;;;11.29;61.60;99600.06;5038356;28;20211;-55
2023/01/08 21:45:23;;;;;;;2.63;2.43;;;8.80;85.90;;;11.33;61.58;99593.38;5038415;28;20248;-54
2023/01/08 21:46:49;;;;;;;3.23;2.93;;;8.80;86.20;;;11.26;61.36;99592.56;5036860;28;20204;-56
2023/01/08 21:49:17;;;;;;;3.37;2.60;;;8.80;86.40;;;11.27;61.74;99588.91;5024242;28;20222;-53
2023/01/08 21:54:29;;;;;;;3.40;2.60;;;8.80;86.60;;;11.22;61.65;99581.63;5016677;28;20188;-58
2023/01/08 21:56:56;;;;;;;3.63;2.80;;;8.80;86.70;;;11.22;61.69;99575.56;5017109;28;20706;-56
2023/01/08 21:59:23;;;;;;;3.13;2.53;;;8.80;86.80;;;11.22;62.14;99580.84;5016817;28;20203;-55
2023/01/08 22:01:50;;;;;;;3.90;2.67;;;8.70;86.70;;;11.19;61.67;99565.44;5016453;28;20195;-55
2023/01/08 22:04:18;;;;;;;4.03;2.77;;;8.80;86.90;;;11.20;61.95;99551.25;5016243;28;20317;-54
2023/01/08 22:06:45;;;;;;;3.27;2.80;;;8.80;86.70;;;11.22;61.98;99550.03;5033916;28;20206;-56
2023/01/08 22:09:12;;;;;;;2.97;2.73;;;8.80;86.80;;;11.28;61.68;99558.94;5035427;28;20306;-55
2023/01/08 22:11:39;;;;;;;2.63;2.40;;;8.70;86.70;;;11.30;61.51;99554.25;5035689;28;20286;-57
2023/01/08 22:14:06;;;;;;;2.67;2.47;;;8.80;86.80;;;11.30;61.54;99555.06;5034918;28;20198;-56
2023/01/08 22:16:33;;;;;;;3.17;2.57;;;8.80;86.70;;;11.29;61.64;99534.22;5034981;28;20201;-55
2023/01/08 22:19:00;;;;;;;3.50;2.97;;;8.80;86.60;;;11.28;61.24;99537.84;5023393;28;20271;-54
2023/01/08 22:21:28;;;;;;;3.37;2.80;;;8.70;86.60;;;11.27;61.60;99536.22;5019161;28;20717;-55
2023/01/08 22:23:55;;;;;;;4.27;3.17;;;8.70;86.60;;;11.23;61.66;99535.03;5035313;28;20229;-58
2023/01/08 22:26:23;;;;;;;3.40;2.77;;;8.70;86.60;;;11.20;61.71;99540.72;5023210;28;20211;-57
2023/01/08 22:28:50;;;;;;;2.63;2.40;;;8.70;86.60;;;11.20;61.26;99540.72;5015041;28;20218;-57
2023/01/08 22:31:16;;;;;;;2.67;2.47;;;8.70;86.70;;;11.18;61.51;99534.84;5015107;28;20191;-57
2023/01/08 22:33:44;;;;;;;4.07;2.90;;;8.70;86.70;;;11.17;61.42;99530.63;5015294;28;20199;-57
2023/01/08 22:36:13;;;;;;;3.40;2.50;;;8.70;86.70;;;11.19;61.65;99529.41;5015200;28;20195;-55
2023/01/08 22:38:41;;;;;;;2.80;2.40;;;8.70;86.70;;;11.21;61.87;99531.81;5015497;28;20225;-57
2023/01/08 22:41:15;;;;;;;2.80;2.40;;;8.70;86.70;;;11.22;61.58;99523.69;5030519;28;20257;-56
2023/01/08 22:43:42;;;;;;;2.30;2.10;;;8.70;86.80;;;11.22;61.56;99521.06;5015664;28;20257;-54
2023/01/08 22:46:13;;;;;;;3.07;2.77;;;8.70;86.80;;;11.22;61.11;99515.00;5015272;28;20195;-54
2023/01/08 22:48:41;;;;;;;2.43;2.00;;;8.70;86.70;;;11.22;61.05;99515.00;5015101;28;20219;-54
2023/01/08 22:51:08;;;;;;;2.73;2.37;;;8.70;86.70;;;11.23;61.69;99503.44;5014689;28;20206;-54